Terminal Aerodrome Forecast
Issued by NWS Upton, NY

Home | Current Version | Previous Version | Text Only | Print | Product List | Glossary On
Versions: 1 2 3 4 5 6 7 8 9 10 11 12 13 14 15 16 17 18 19 20 21 22 23 24 25 26 27 28 29 30 31
000
FTUS41 KOKX 200800 AAA
TAFJFK
TAF AMD
KJFK 200831Z 2009/2112 28006KT P6SM BKN220
     FM201400 22010KT P6SM BKN200
     FM202000 20012KT P6SM FEW035 OVC150
     FM210000 20009KT P6SM SCT035 OVC120
     FM210600 20006KT P6SM -RA BKN035 OVC100
     FM211000 VRB05KT P6SM -RA SCT025 BKN035=

USA.gov is the U.S. government's official web portal to all federal, state and local government web resources and services.